M I D A S
Marine Information and Data Acquisition System
Tripno 524 of the Zeeleeuw from 2003-06-25 06:54:58 to 2003-06-25 11:03:42
Back to CruiseResearch ActivitiesStationsMapUnderway DataData graphs

EquipmentUnitsComment
TimeDGPSUTC
LatitudeDGPSDM.mWGS84
LongitudeDGPSDM.mWGS84
HeadingGyrodeg 
SOGDGPSknotsSpeed over ground
COGDGPSdegCourse over ground
DepthEcho soundermeters200 kHz
Missing or incorrect values are displayed as -999
Navigation data collected by the RV Zeeleeuw from 2003-06-25 06:54:58 to 2003-06-25 11:03:42
                                                                                    Next 1000 lines
Time Latitude Longitude Heading SOG COG Depth
2003-06-25 06:55:06 51°13.6 2°56.1 115.4 1 295 8.1
2003-06-25 06:55:12 51°13.6 2°56.1 115.8 1.2 297 8.1
2003-06-25 06:55:16 51°13.6 2°56.09 116.2 1.4 296 8.5
2003-06-25 06:55:22 51°13.6 2°56.09 116.8 1.6 297 -999
2003-06-25 06:55:28 51°13.61 2°56.09 117.5 1.8 298 -999
2003-06-25 06:55:32 51°13.61 2°56.08 117.8 2 299 -999
2003-06-25 06:55:38 51°13.61 2°56.08 118 2.1 300 -999
2003-06-25 06:55:44 51°13.61 2°56.07 118.1 2.3 298 -999
2003-06-25 06:55:48 51°13.61 2°56.07 118 2.4 299 -999
2003-06-25 06:55:54 51°13.61 2°56.06 117.5 2.5 296 -999
2003-06-25 06:56:00 51°13.61 2°56.06 116.8 2.6 297 -999
2003-06-25 06:56:04 51°13.62 2°56.05 116 2.7 295 -999
2003-06-25 06:56:10 51°13.62 2°56.05 115.1 2.7 295 -999
2003-06-25 06:56:14 51°13.62 2°56.04 114.3 2.7 293 -999
2003-06-25 06:56:20 51°13.62 2°56.03 113.5 2.8 293 -999
2003-06-25 06:56:26 51°13.62 2°56.03 112.8 2.9 291 -999
2003-06-25 06:56:30 51°13.62 2°56.02 112.2 3 291 -999
2003-06-25 06:56:36 51°13.63 2°56.01 111.8 3.1 290 -999
2003-06-25 06:56:40 51°13.63 2°56.01 111.8 3.2 290 -999
2003-06-25 06:56:46 51°13.63 2°56 111.8 3.3 289 -999
2003-06-25 06:56:52 51°13.63 2°55.99 112.1 3.5 289 -999
2003-06-25 06:56:56 51°13.63 2°55.99 112.5 3.6 290 -999
2003-06-25 06:57:02 51°13.63 2°55.98 112.9 3.8 290 -999
2003-06-25 06:57:06 51°13.64 2°55.97 113.8 3.8 291 -999
2003-06-25 06:57:12 51°13.64 2°55.96 114.8 4 292 -999
2003-06-25 06:57:16 51°13.64 2°55.95 115.7 4.1 293 -999
2003-06-25 06:57:22 51°13.64 2°55.94 116.1 4.2 294 -999
2003-06-25 06:57:26 51°13.64 2°55.94 116.1 4.2 293 -999
2003-06-25 06:57:32 51°13.65 2°55.93 116.1 4.2 294 -999
2003-06-25 06:57:36 51°13.65 2°55.92 115.7 4.3 294 -999
2003-06-25 06:57:42 51°13.65 2°55.91 115.3 4.3 294 -999
2003-06-25 06:57:46 51°13.65 2°55.9 114.8 4.3 293 -999
2003-06-25 06:57:52 51°13.66 2°55.89 114 4.4 293 -999
2003-06-25 06:57:56 51°13.66 2°55.88 113.3 4.4 292 -999
2003-06-25 06:58:02 51°13.66 2°55.87 112.7 4.4 292 -999
2003-06-25 06:58:06 51°13.66 2°55.86 112 4.4 291 -999
2003-06-25 06:58:12 51°13.66 2°55.85 111 4.2 290 -999
2003-06-25 06:58:16 51°13.67 2°55.85 110.1 4.1 290 -999
2003-06-25 06:58:20 51°13.67 2°55.84 109.3 3.9 289 -999
2003-06-25 06:58:26 51°13.67 2°55.83 108.7 3.7 288 -999
2003-06-25 06:58:32 51°13.67 2°55.82 107.9 3.6 288 -999
2003-06-25 06:58:36 51°13.67 2°55.82 107.4 3.5 288 -999
2003-06-25 06:58:40 51°13.67 2°55.81 107 3.3 287 10.3
2003-06-25 06:58:44 51°13.67 2°55.8 106.6 3.2 287 10.2
2003-06-25 06:58:50 51°13.68 2°55.8 106.2 3 287 10.4
2003-06-25 06:58:54 51°13.68 2°55.79 105.7 2.8 287 10.8
2003-06-25 06:58:58 51°13.68 2°55.79 104.7 2.6 286 10.9
2003-06-25 06:59:02 51°13.68 2°55.78 103.6 2.3 287 11.6
2003-06-25 06:59:08 51°13.68 2°55.78 102.3 1.9 285 12.1
2003-06-25 06:59:12 51°13.68 2°55.78 100.5 1.8 286 12.5
2003-06-25 06:59:16 51°13.68 2°55.77 99 1.7 287 12.9
2003-06-25 06:59:20 51°13.68 2°55.77 97.7 1.6 285 12.9
2003-06-25 06:59:26 51°13.68 2°55.77 96.5 1.5 284 13
2003-06-25 06:59:32 51°13.68 2°55.76 95.2 1.5 283 13.1
2003-06-25 06:59:36 51°13.68 2°55.76 93.6 1.5 283 12.9
2003-06-25 06:59:40 51°13.68 2°55.76 92.1 1.4 280 13.3
2003-06-25 06:59:46 51°13.68 2°55.75 89.9 1.3 279 5
2003-06-25 06:59:52 51°13.68 2°55.75 87.8 1.2 278 -999
2003-06-25 06:59:58 51°13.68 2°55.75 85.3 1 279 -999
2003-06-25 07:00:04 51°13.68 2°55.75 82.7 0.6 287 -999
2003-06-25 07:00:08 51°13.68 2°55.75 79.2 0.4 307 -999
2003-06-25 07:00:14 51°13.69 2°55.75 74.9 0.4 5 -999
2003-06-25 07:00:18 51°13.69 2°55.75 69.7 0.6 32 -999
2003-06-25 07:00:24 51°13.69 2°55.75 64.3 0.8 36 -999
2003-06-25 07:00:30 51°13.69 2°55.75 58.6 1.1 37 -999
2003-06-25 07:00:34 51°13.69 2°55.75 52.8 1.3 36 4.7
2003-06-25 07:00:38 51°13.69 2°55.75 48.2 1.5 33 14.4
2003-06-25 07:00:44 51°13.69 2°55.76 43.7 1.7 29 14
2003-06-25 07:00:48 51°13.7 2°55.76 38 2.1 26 14.3
2003-06-25 07:00:52 51°13.7 2°55.76 31.5 2.4 21 14.3
2003-06-25 07:00:56 51°13.7 2°55.76 23.9 2.7 15 14.1
2003-06-25 07:01:02 51°13.71 2°55.76 16.2 3.1 7 13.7
2003-06-25 07:01:06 51°13.71 2°55.76 8.3 3.4 1 13.4
2003-06-25 07:01:12 51°13.72 2°55.76 0.2 3.7 352 13
2003-06-25 07:01:16 51°13.72 2°55.76 352 4 345 12.1
2003-06-25 07:01:20 51°13.72 2°55.76 343.7 4.2 338 11.8
2003-06-25 07:01:26 51°13.73 2°55.75 336.8 4.6 331 11.6
2003-06-25 07:01:32 51°13.74 2°55.74 331.6 5 328 11.5
2003-06-25 07:01:36 51°13.74 2°55.74 327.5 5 323 11.4
2003-06-25 07:01:42 51°13.75 2°55.73 325.1 5 322 11.4
2003-06-25 07:01:46 51°13.75 2°55.72 323.4 5 319 11.5
2003-06-25 07:01:52 51°13.76 2°55.71 322.4 5 320 11.4
2003-06-25 07:01:56 51°13.76 2°55.71 322.2 5 319 11.4
2003-06-25 07:02:02 51°13.77 2°55.7 322 5 319 11.3
2003-06-25 07:02:06 51°13.77 2°55.69 321.5 5 318 11.3
2003-06-25 07:02:12 51°13.78 2°55.69 321.4 5 318 11.4
2003-06-25 07:02:16 51°13.78 2°55.68 321.7 5.1 318 11.5
2003-06-25 07:02:22 51°13.79 2°55.67 322.6 5.1 320 11.5
2003-06-25 07:02:26 51°13.8 2°55.67 324 5.1 321 11.7
2003-06-25 07:02:32 51°13.8 2°55.66 325.9 5.1 323 11.7
2003-06-25 07:02:36 51°13.81 2°55.65 328.1 5.1 325 11.7
2003-06-25 07:02:42 51°13.81 2°55.64 330.3 4.8 327 11.7
2003-06-25 07:02:46 51°13.82 2°55.64 332.6 5.1 329 11.6
2003-06-25 07:02:52 51°13.83 2°55.63 334.6 5.1 331 11.6
2003-06-25 07:02:56 51°13.83 2°55.63 336.1 5 332 11.5
2003-06-25 07:03:00 51°13.84 2°55.62 337.4 5 333 11.4
2003-06-25 07:03:04 51°13.84 2°55.62 338.4 5 334 11.1
2003-06-25 07:03:12 51°13.85 2°55.61 338.9 5 335 11
2003-06-25 07:03:16 51°13.86 2°55.61 338.9 5 335 11.8
2003-06-25 07:03:22 51°13.86 2°55.6 338.9 5 335 11.6
2003-06-25 07:03:26 51°13.87 2°55.6 338.8 5 334 11.6
2003-06-25 07:03:32 51°13.88 2°55.59 338.8 5 335 11.9
2003-06-25 07:03:36 51°13.88 2°55.59 339 5.1 335 11.9
2003-06-25 07:03:40 51°13.89 2°55.59 339 5.1 336 11.8
2003-06-25 07:03:46 51°13.89 2°55.58 339.1 5.1 335 11.9
2003-06-25 07:03:52 51°13.9 2°55.58 339 5 335 11.8
2003-06-25 07:03:56 51°13.91 2°55.57 339 5 335 11.8
2003-06-25 07:04:02 51°13.91 2°55.57 339.4 5.2 335 12
2003-06-25 07:04:06 51°13.92 2°55.56 339.6 5.1 335 12
2003-06-25 07:04:12 51°13.93 2°55.56 339.6 5 335 11.9
2003-06-25 07:04:16 51°13.93 2°55.55 339.6 5 336 12
2003-06-25 07:04:20 51°13.94 2°55.55 339.6 5.1 335 12
2003-06-25 07:04:26 51°13.94 2°55.54 339.7 5.2 336 12
2003-06-25 07:04:32 51°13.95 2°55.54 339.7 5.4 337 11.9
2003-06-25 07:04:36 51°13.96 2°55.53 339.3 5.5 336 11.9
2003-06-25 07:04:42 51°13.97 2°55.53 338.9 5.6 336 11.9
2003-06-25 07:04:46 51°13.97 2°55.52 338.6 5.7 336 11.8
2003-06-25 07:04:52 51°13.98 2°55.52 338.6 5.8 336 11.8
2003-06-25 07:04:56 51°13.99 2°55.51 339 5.9 336 11.8
2003-06-25 07:05:02 51°14 2°55.51 339.4 5.9 336 11.8
2003-06-25 07:05:06 51°14 2°55.5 339.5 6 336 11.8
2003-06-25 07:05:12 51°14.01 2°55.5 339.2 6 335 11.9
2003-06-25 07:05:16 51°14.02 2°55.49 339.2 6.1 335 11.9
2003-06-25 07:05:22 51°14.03 2°55.48 339.8 6.3 336 12
2003-06-25 07:05:26 51°14.03 2°55.48 340.2 6.4 335 12.1
2003-06-25 07:05:32 51°14.04 2°55.47 340.1 6.6 335 11.9
2003-06-25 07:05:36 51°14.05 2°55.47 339.6 6.7 335 11.8
2003-06-25 07:05:42 51°14.06 2°55.46 339.7 6.8 335 11.8
2003-06-25 07:05:46 51°14.07 2°55.45 340.4 6.9 336 11.7
2003-06-25 07:05:52 51°14.08 2°55.45 340.9 6.9 336 11.7
2003-06-25 07:05:56 51°14.09 2°55.44 340.8 7 336 11.8
2003-06-25 07:06:00 51°14.09 2°55.44 340.4 7.1 336 11.9
2003-06-25 07:06:04 51°14.1 2°55.43 339.6 7.1 335 11.9
2003-06-25 07:06:12 51°14.11 2°55.42 339.2 7.2 335 11.8
2003-06-25 07:06:16 51°14.12 2°55.42 338.8 7.2 334 11.8
2003-06-25 07:06:22 51°14.13 2°55.41 338.4 7.2 334 11.8
2003-06-25 07:06:26 51°14.14 2°55.4 337.9 7.2 334 11.9
2003-06-25 07:06:32 51°14.15 2°55.39 337.2 7.2 333 11.9
2003-06-25 07:06:36 51°14.16 2°55.39 335.7 7.2 332 11.9
2003-06-25 07:06:40 51°14.16 2°55.38 334.1 7.2 330 12.1
2003-06-25 07:06:46 51°14.17 2°55.37 333 7.2 329 12.3
2003-06-25 07:06:52 51°14.18 2°55.36 331.6 7.2 327 12.1
2003-06-25 07:06:56 51°14.19 2°55.35 329.9 7.2 326 12.2
2003-06-25 07:07:02 51°14.2 2°55.34 328.1 7.2 324 12
2003-06-25 07:07:06 51°14.21 2°55.33 326.4 7.3 323 12.1
2003-06-25 07:07:12 51°14.22 2°55.32 325.1 7.5 321 12
2003-06-25 07:07:16 51°14.22 2°55.31 324.4 7.7 321 12.2
2003-06-25 07:07:22 51°14.23 2°55.3 323.6 7.8 319 12.1
2003-06-25 07:07:26 51°14.24 2°55.29 322.9 8 319 12
2003-06-25 07:07:32 51°14.25 2°55.28 321.7 8.2 317 11.9
2003-06-25 07:07:36 51°14.26 2°55.27 320 8.4 316 11.9
2003-06-25 07:07:42 51°14.27 2°55.25 318.6 8.6 314 11.9
2003-06-25 07:07:46 51°14.27 2°55.24 317.2 8.7 313 11.9
2003-06-25 07:07:52 51°14.28 2°55.22 315.4 8.9 311 11.9
2003-06-25 07:07:56 51°14.29 2°55.21 313.9 8.9 309 11.8
2003-06-25 07:08:02 51°14.3 2°55.19 313.2 9.1 309 11.8
2003-06-25 07:08:06 51°14.3 2°55.18 312.7 9.1 308 11.8
2003-06-25 07:08:12 51°14.31 2°55.16 312.2 9.2 308 11.9
2003-06-25 07:08:16 51°14.32 2°55.14 311.9 9.4 307 11.6
2003-06-25 07:08:22 51°14.33 2°55.12 312.1 9.7 308 11.5
2003-06-25 07:08:26 51°14.34 2°55.11 312.4 9.7 308 11
2003-06-25 07:08:32 51°14.35 2°55.09 312.8 9.9 309 11.1
2003-06-25 07:08:36 51°14.35 2°55.08 313.5 9.9 309 11.4
2003-06-25 07:08:42 51°14.37 2°55.06 314.8 10.1 312 11.4
2003-06-25 07:08:44 51°14.37 2°55.05 315.8 10.3 313 11.4
2003-06-25 07:08:52 51°14.39 2°55.02 316 10.4 314 11.2
2003-06-25 07:08:56 51°14.39 2°55.01 316.8 10.6 314 11.3
2003-06-25 07:09:02 51°14.41 2°54.99 318.9 10.7 318 11.2
2003-06-25 07:09:06 51°14.42 2°54.98 321.2 11 319 11.3
2003-06-25 07:09:12 51°14.43 2°54.96 324 11.1 323 11
2003-06-25 07:09:16 51°14.44 2°54.95 326.4 11.3 324 11
2003-06-25 07:09:20 51°14.45 2°54.94 328 11.4 326 10.9
2003-06-25 07:09:26 51°14.47 2°54.92 328.7 11.5 327 10.7
2003-06-25 07:09:32 51°14.48 2°54.9 329.4 11.7 328 10.6
2003-06-25 07:09:36 51°14.49 2°54.89 329.8 11.7 328 10.8
2003-06-25 07:09:42 51°14.51 2°54.88 330.3 11.8 328 10.6
2003-06-25 07:09:46 51°14.52 2°54.87 330.7 11.9 329 10.6
2003-06-25 07:09:52 51°14.54 2°54.85 330.6 11.9 328 10.7
2003-06-25 07:09:56 51°14.55 2°54.84 330.5 11.9 328 10.8
2003-06-25 07:10:02 51°14.57 2°54.82 330.2 12 328 10.8
2003-06-25 07:10:06 51°14.58 2°54.81 329.8 12 328 10.5
2003-06-25 07:10:12 51°14.6 2°54.79 329.4 12.2 327 10.3
2003-06-25 07:10:16 51°14.61 2°54.78 329.4 12.2 327 10.2
2003-06-25 07:10:22 51°14.62 2°54.76 329.9 12.2 328 10.2
2003-06-25 07:10:26 51°14.64 2°54.75 330 12.4 327 10.2
2003-06-25 07:10:32 51°14.65 2°54.73 330 12.4 328 10.2
2003-06-25 07:10:36 51°14.66 2°54.72 330.2 12.4 328 10.1
2003-06-25 07:10:42 51°14.68 2°54.7 330.3 12.5 328 10.1
2003-06-25 07:10:46 51°14.69 2°54.69 330.3 12.5 328 10.1
2003-06-25 07:10:52 51°14.71 2°54.67 330.2 12.6 327 10.1
2003-06-25 07:10:56 51°14.72 2°54.66 329.7 12.7 327 10.2
2003-06-25 07:11:02 51°14.74 2°54.64 329.7 12.6 327 10.2
2003-06-25 07:11:06 51°14.75 2°54.63 329.7 12.7 327 10.3
2003-06-25 07:11:12 51°14.77 2°54.61 329.7 12.8 327 10.1
2003-06-25 07:11:16 51°14.78 2°54.6 329.9 12.7 327 10.1
2003-06-25 07:11:20 51°14.79 2°54.59 330 12.7 327 10.3
2003-06-25 07:11:24 51°14.81 2°54.58 329.9 12.7 327 10.1
2003-06-25 07:11:32 51°14.83 2°54.55 329.9 12.8 327 10.2
2003-06-25 07:11:36 51°14.84 2°54.54 330 12.8 327 10.2
2003-06-25 07:11:42 51°14.86 2°54.52 330.1 12.8 327 10.2
2003-06-25 07:11:46 51°14.87 2°54.51 330.2 12.8 327 10.2
2003-06-25 07:11:52 51°14.89 2°54.49 330.3 13 327 10
2003-06-25 07:11:56 51°14.9 2°54.48 330.3 13 327 10
2003-06-25 07:12:02 51°14.92 2°54.46 330.3 12.9 327 9.9
2003-06-25 07:12:06 51°14.93 2°54.45 330.1 13 327 9.9
2003-06-25 07:12:12 51°14.95 2°54.43 329.9 13 327 9.7
2003-06-25 07:12:16 51°14.96 2°54.42 329.7 13 327 9.5
2003-06-25 07:12:20 51°14.97 2°54.4 329.8 13 327 9.5
2003-06-25 07:12:26 51°14.99 2°54.38 329.9 13.1 327 9.5
2003-06-25 07:12:32 51°15.01 2°54.36 329.9 13.1 327 9.5
2003-06-25 07:12:36 51°15.02 2°54.35 329.8 13.1 327 9.6
2003-06-25 07:12:42 51°15.04 2°54.33 329.7 13.2 327 9.5
2003-06-25 07:12:46 51°15.05 2°54.32 329.8 13.1 327 9.5
2003-06-25 07:12:52 51°15.07 2°54.3 330 13.2 327 9.5
2003-06-25 07:12:56 51°15.08 2°54.29 330.1 13.3 327 9.6
2003-06-25 07:13:02 51°15.1 2°54.27 330.2 13.4 327 9.4
2003-06-25 07:13:06 51°15.12 2°54.26 330 13.4 327 9.6
2003-06-25 07:13:12 51°15.13 2°54.24 329.8 13.5 327 9.8
2003-06-25 07:13:16 51°15.15 2°54.22 329.7 13.5 327 9.8
2003-06-25 07:13:22 51°15.17 2°54.2 329.7 13.5 327 9.9
2003-06-25 07:13:26 51°15.18 2°54.19 329.8 13.4 327 10
2003-06-25 07:13:32 51°15.2 2°54.17 329.9 13.5 327 9.9
2003-06-25 07:13:36 51°15.21 2°54.16 329.9 13.5 327 9.9
2003-06-25 07:13:42 51°15.23 2°54.14 330.1 13.6 327 9.9
2003-06-25 07:13:46 51°15.24 2°54.13 330.1 13.7 327 10.1
2003-06-25 07:13:52 51°15.26 2°54.11 330.1 13.6 327 10.2
2003-06-25 07:13:56 51°15.27 2°54.09 330 13.7 326 10.3
2003-06-25 07:14:02 51°15.29 2°54.07 329.8 13.6 326 10.3
2003-06-25 07:14:06 51°15.3 2°54.06 329.9 13.7 326 10.4
2003-06-25 07:14:12 51°15.32 2°54.04 330.2 13.8 327 10.4
2003-06-25 07:14:16 51°15.34 2°54.03 330.7 13.8 327 10.4
2003-06-25 07:14:20 51°15.35 2°54.01 330.9 13.9 327 10.4
2003-06-25 07:14:24 51°15.36 2°54 331 13.9 327 10.5
2003-06-25 07:14:32 51°15.39 2°53.97 330.9 13.7 326 10.6
2003-06-25 07:14:36 51°15.4 2°53.96 330.4 13.8 326 10.8
2003-06-25 07:14:42 51°15.42 2°53.94 330.2 13.7 326 10.8
2003-06-25 07:14:46 51°15.43 2°53.92 329.7 13.7 325 10.8
2003-06-25 07:14:52 51°15.45 2°53.9 329.5 13.8 325 11
2003-06-25 07:14:56 51°15.46 2°53.89 330 13.8 326 11
2003-06-25 07:15:02 51°15.48 2°53.87 330.2 14 326 11
2003-06-25 07:15:06 51°15.5 2°53.85 330.6 13.9 326 11.1
2003-06-25 07:15:12 51°15.51 2°53.83 330.9 13.8 327 11.3
2003-06-25 07:15:16 51°15.53 2°53.82 330.9 13.9 326 11.2
2003-06-25 07:15:20 51°15.54 2°53.81 330.9 13.9 327 11.3
2003-06-25 07:15:26 51°15.56 2°53.79 331 14 327 11.5
2003-06-25 07:15:32 51°15.58 2°53.77 330.9 14 326 11.4
2003-06-25 07:15:36 51°15.59 2°53.75 330.9 14 326 11.5
2003-06-25 07:15:40 51°15.6 2°53.74 332.1 14 329 11.6
2003-06-25 07:15:46 51°15.62 2°53.72 333.4 14 329 11.8
2003-06-25 07:15:52 51°15.65 2°53.7 334.5 13.9 330 11.9
2003-06-25 07:15:56 51°15.66 2°53.69 335.2 13.9 331 12
2003-06-25 07:16:02 51°15.68 2°53.67 335.4 14.1 331 11.8
2003-06-25 07:16:06 51°15.69 2°53.66 335.9 14 332 11.9
2003-06-25 07:16:12 51°15.71 2°53.64 335.9 14 331 12.1
2003-06-25 07:16:16 51°15.73 2°53.63 336 14 332 12.2
2003-06-25 07:16:22 51°15.75 2°53.61 336.1 14.1 331 12
2003-06-25 07:16:26 51°15.76 2°53.6 335.9 14.1 331 12.1
2003-06-25 07:16:32 51°15.78 2°53.58 335.7 14 331 12.3
2003-06-25 07:16:36 51°15.8 2°53.57 335.8 14.1 332 12.3
2003-06-25 07:16:42 51°15.82 2°53.55 337.3 14 334 12.4
2003-06-25 07:16:46 51°15.83 2°53.54 338.8 14.1 335 12.5
2003-06-25 07:16:52 51°15.85 2°53.53 339.6 14 336 12.5
2003-06-25 07:16:56 51°15.87 2°53.52 340.2 14.1 336 12.5
2003-06-25 07:17:00 51°15.88 2°53.51 340.9 14.1 337 12.6
2003-06-25 07:17:04 51°15.9 2°53.5 341.2 14.1 337 12.7
2003-06-25 07:17:12 51°15.92 2°53.48 341.3 14.1 337 12.7
2003-06-25 07:17:16 51°15.94 2°53.47 341.3 14 337 12.7
2003-06-25 07:17:22 51°15.96 2°53.46 341.1 14.1 337 12.6
2003-06-25 07:17:26 51°15.97 2°53.45 341.1 14.1 337 12.6
2003-06-25 07:17:32 51°16 2°53.43 341 14.1 336 12.7
2003-06-25 07:17:36 51°16.01 2°53.42 341 14.1 336 12.8
2003-06-25 07:17:40 51°16.03 2°53.41 340.8 14.1 336 12.7
2003-06-25 07:17:46 51°16.05 2°53.4 340.7 14.1 336 12.7
2003-06-25 07:17:52 51°16.07 2°53.38 340.7 14.1 336 12.8
2003-06-25 07:17:56 51°16.08 2°53.37 340.6 14.2 336 12.8
2003-06-25 07:18:02 51°16.1 2°53.35 340.5 14 336 12.9
2003-06-25 07:18:06 51°16.12 2°53.34 340.5 14.1 336 12.8
2003-06-25 07:18:12 51°16.14 2°53.33 340.9 14.1 336 12.8
2003-06-25 07:18:16 51°16.15 2°53.32 340.9 14.2 336 13
2003-06-25 07:18:22 51°16.18 2°53.3 340.8 14.1 336 13
2003-06-25 07:18:26 51°16.19 2°53.29 340.8 14.1 336 13
2003-06-25 07:18:32 51°16.21 2°53.28 340.8 14.2 336 13.1
2003-06-25 07:18:36 51°16.23 2°53.27 339.6 14.2 335 13.2
2003-06-25 07:18:42 51°16.25 2°53.25 338.2 14.2 333 13.2
2003-06-25 07:18:46 51°16.26 2°53.24 337.2 14.2 333 13.1
2003-06-25 07:18:52 51°16.28 2°53.22 336.2 14.2 331 13.1
2003-06-25 07:18:56 51°16.29 2°53.21 335.7 14.2 331 13.2
2003-06-25 07:19:02 51°16.31 2°53.19 335.3 14.1 330 13.4
2003-06-25 07:19:06 51°16.33 2°53.18 334.8 14 330 13.1
2003-06-25 07:19:12 51°16.35 2°53.16 334.4 14.2 330 13
2003-06-25 07:19:16 51°16.36 2°53.15 334.5 14.2 330 13.1
2003-06-25 07:19:22 51°16.38 2°53.13 334.5 14 330 13.4
2003-06-25 07:19:26 51°16.4 2°53.11 334.8 14 330 13.2
2003-06-25 07:19:32 51°16.42 2°53.1 334.9 14.2 330 13.1
2003-06-25 07:19:36 51°16.43 2°53.08 335.2 14.2 331 13.1
2003-06-25 07:19:42 51°16.45 2°53.07 335.3 14 330 13.2
2003-06-25 07:19:44 51°16.46 2°53.06 335.3 14.1 331 13.1
2003-06-25 07:19:52 51°16.48 2°53.03 335.3 14.1 331 13
2003-06-25 07:19:56 51°16.5 2°53.02 335.5 14.1 331 13
2003-06-25 07:20:02 51°16.52 2°53 335.4 14.1 330 12.8
2003-06-25 07:20:06 51°16.53 2°52.99 335 14.2 330 12.7
2003-06-25 07:20:12 51°16.55 2°52.97 334.9 14.2 330 12.7
2003-06-25 07:20:16 51°16.57 2°52.96 334.7 14.2 330 12.7
2003-06-25 07:20:20 51°16.58 2°52.95 334.6 14.2 330 12.7
2003-06-25 07:20:26 51°16.6 2°52.93 334.6 14.1 330 12.6
2003-06-25 07:20:32 51°16.62 2°52.91 334.6 14.2 330 12.2
2003-06-25 07:20:36 51°16.63 2°52.9 334.9 14.1 330 12.3
2003-06-25 07:20:42 51°16.66 2°52.88 335.2 14 331 12.3
2003-06-25 07:20:46 51°16.67 2°52.87 335.5 14 332 12.2
2003-06-25 07:20:52 51°16.69 2°52.85 335.8 13.9 331 12
2003-06-25 07:20:56 51°16.7 2°52.84 335.8 13.9 332 11.8
2003-06-25 07:21:02 51°16.72 2°52.82 335.7 13.8 331 11.6
2003-06-25 07:21:06 51°16.74 2°52.81 335.1 13.9 331 11.4
2003-06-25 07:21:12 51°16.76 2°52.79 335.1 13.6 331 11.2
2003-06-25 07:21:16 51°16.77 2°52.78 334.9 13.6 330 10.7
2003-06-25 07:21:22 51°16.79 2°52.76 335 13.6 331 10.6
2003-06-25 07:21:26 51°16.8 2°52.75 335.3 13.5 331 10.7
2003-06-25 07:21:32 51°16.82 2°52.73 335.5 13.6 331 10.9
2003-06-25 07:21:36 51°16.84 2°52.72 335.5 13.6 331 10.6
2003-06-25 07:21:40 51°16.85 2°52.71 335.3 13.6 331 10.4
2003-06-25 07:21:46 51°16.87 2°52.69 335.3 13.6 331 10.4
2003-06-25 07:21:52 51°16.89 2°52.67 335.3 13.6 331 10.6
2003-06-25 07:21:56 51°16.9 2°52.66 335.2 13.6 331 10.6
2003-06-25 07:22:00 51°16.91 2°52.65 335.2 13.6 331 10.9
2003-06-25 07:22:06 51°16.93 2°52.63 334.8 13.7 330 10.9
2003-06-25 07:22:12 51°16.95 2°52.61 334.9 13.6 330 11.2
2003-06-25 07:22:16 51°16.97 2°52.6 335 13.7 331 11.2
2003-06-25 07:22:22 51°16.99 2°52.58 335.3 13.7 331 11.1
2003-06-25 07:22:26 51°17 2°52.57 335.4 13.7 332 10.8
2003-06-25 07:22:32 51°17.02 2°52.56 335.7 13.7 332 10.7
2003-06-25 07:22:36 51°17.03 2°52.54 336 13.6 332 10.7
2003-06-25 07:22:42 51°17.05 2°52.53 335.9 13.6 332 10.5
2003-06-25 07:22:46 51°17.07 2°52.52 335.3 13.6 331 10.6
2003-06-25 07:22:52 51°17.09 2°52.5 335.3 13.6 332 10.7
2003-06-25 07:22:56 51°17.1 2°52.49 335.3 13.7 331 10.7
2003-06-25 07:23:02 51°17.12 2°52.47 335.3 13.7 331 10.9
2003-06-25 07:23:06 51°17.13 2°52.46 335.2 13.7 331 10.9
2003-06-25 07:23:12 51°17.15 2°52.44 335.1 13.7 331 11.1
2003-06-25 07:23:16 51°17.17 2°52.43 334.6 13.7 331 11
2003-06-25 07:23:22 51°17.19 2°52.41 334.7 13.7 331 11.1
2003-06-25 07:23:26 51°17.2 2°52.4 334.9 13.6 331 11.3
2003-06-25 07:23:32 51°17.22 2°52.38 335.3 13.8 332 11.1
2003-06-25 07:23:36 51°17.23 2°52.37 335.4 13.8 332 11.2
2003-06-25 07:23:42 51°17.25 2°52.35 335.5 13.7 332 11.4
2003-06-25 07:23:44 51°17.26 2°52.35 335.4 13.6 331 11.6
2003-06-25 07:23:52 51°17.29 2°52.32 335.3 13.6 331 11.5
2003-06-25 07:23:56 51°17.3 2°52.31 335.1 13.6 331 11.5
2003-06-25 07:24:02 51°17.32 2°52.29 334.8 13.7 330 11.4
2003-06-25 07:24:06 51°17.33 2°52.28 334.9 13.7 332 11.5
2003-06-25 07:24:12 51°17.35 2°52.26 335.3 13.7 331 11.6
2003-06-25 07:24:16 51°17.37 2°52.25 335.6 13.7 332 11.5
2003-06-25 07:24:22 51°17.39 2°52.23 333.4 13.6 328 11.7
2003-06-25 07:24:26 51°17.4 2°52.22 330.7 13.6 326 11.5
2003-06-25 07:24:32 51°17.42 2°52.2 326.9 13.6 321 11.4
2003-06-25 07:24:36 51°17.43 2°52.18 322.9 13.6 318 11.3
2003-06-25 07:24:42 51°17.44 2°52.16 319.2 13.5 314 11.5
2003-06-25 07:24:46 51°17.45 2°52.14 315.6 13.4 310 11.4
2003-06-25 07:24:52 51°17.47 2°52.11 312.9 13.5 308 11.4
2003-06-25 07:24:56 51°17.47 2°52.09 311 13.5 307 11.5
2003-06-25 07:25:00 51°17.48 2°52.07 309.8 13.5 305 11.4
2003-06-25 07:25:06 51°17.5 2°52.04 309.1 13.5 305 11.6
2003-06-25 07:25:12 51°17.51 2°52.01 308.5 13.6 304 11.6
2003-06-25 07:25:16 51°17.52 2°51.99 308.1 13.6 304 11.6
2003-06-25 07:25:22 51°17.53 2°51.96 307.7 13.6 304 11.5
2003-06-25 07:25:26 51°17.54 2°51.94 307.3 13.6 304 11.6
2003-06-25 07:25:32 51°17.55 2°51.91 307.3 13.6 304 11.6
2003-06-25 07:25:36 51°17.56 2°51.89 307.9 13.6 304 11.4
2003-06-25 07:25:42 51°17.57 2°51.86 308.1 13.7 305 11.4
2003-06-25 07:25:46 51°17.58 2°51.84 308.1 13.6 304 11.3
2003-06-25 07:25:52 51°17.59 2°51.81 308.3 13.6 305 11.2
2003-06-25 07:25:56 51°17.6 2°51.79 308.4 13.5 305 11.2
2003-06-25 07:26:02 51°17.62 2°51.77 308.6 13.6 305 11.1
2003-06-25 07:26:04 51°17.62 2°51.76 308.6 13.7 305 10.9
2003-06-25 07:26:12 51°17.64 2°51.72 308.4 13.6 304 11.2
2003-06-25 07:26:16 51°17.65 2°51.7 308.3 13.6 304 11
2003-06-25 07:26:22 51°17.66 2°51.67 308.9 13.5 305 10.9
2003-06-25 07:26:26 51°17.67 2°51.65 309 13.5 305 10.8
2003-06-25 07:26:32 51°17.68 2°51.62 309.1 13.6 305 11
2003-06-25 07:26:36 51°17.69 2°51.6 309.1 13.6 305 10.7
2003-06-25 07:26:40 51°17.7 2°51.58 309 13.5 305 11
2003-06-25 07:26:46 51°17.71 2°51.55 309.1 13.5 305 11.2
2003-06-25 07:26:52 51°17.72 2°51.52 309 13.5 305 11.1
2003-06-25 07:26:56 51°17.73 2°51.5 308.8 13.5 305 11.1
2003-06-25 07:27:02 51°17.74 2°51.47 309.5 13.7 305 11.2
2003-06-25 07:27:06 51°17.75 2°51.45 309.3 13.6 305 11.2
2003-06-25 07:27:12 51°17.77 2°51.42 309.4 13.6 305 11.4
2003-06-25 07:27:16 51°17.77 2°51.4 309.5 13.6 306 11.4
2003-06-25 07:27:20 51°17.78 2°51.38 309.1 13.5 305 11.3
2003-06-25 07:27:26 51°17.8 2°51.35 309 13.6 305 11.7
2003-06-25 07:27:32 51°17.81 2°51.32 309.1 13.6 305 11.5
2003-06-25 07:27:36 51°17.82 2°51.3 309.2 13.6 306 11.6
2003-06-25 07:27:42 51°17.83 2°51.27 309.9 13.6 306 11.8
2003-06-25 07:27:46 51°17.84 2°51.26 310.3 13.6 307 11.7
2003-06-25 07:27:52 51°17.85 2°51.23 310.1 13.7 306 11.9
2003-06-25 07:27:56 51°17.86 2°51.21 310.1 13.7 307 11.8
2003-06-25 07:28:02 51°17.88 2°51.18 309.7 13.8 306 11.8
2003-06-25 07:28:06 51°17.89 2°51.16 309.5 13.7 306 12.2
2003-06-25 07:28:12 51°17.9 2°51.13 309.1 13.7 305 12.3
2003-06-25 07:28:16 51°17.91 2°51.11 309.4 13.7 305 12.3
2003-06-25 07:28:22 51°17.92 2°51.08 309.7 13.7 306 12.6
2003-06-25 07:28:26 51°17.93 2°51.06 309.6 13.7 306 12.7
2003-06-25 07:28:32 51°17.94 2°51.03 309.3 13.7 305 12.9
2003-06-25 07:28:36 51°17.95 2°51.01 309.9 13.7 306 13
2003-06-25 07:28:40 51°17.96 2°50.99 309.9 13.7 305 13.1
2003-06-25 07:28:44 51°17.97 2°50.97 309.9 13.7 306 13.2
2003-06-25 07:28:52 51°17.99 2°50.93 310.1 13.7 306 13.3
2003-06-25 07:28:56 51°18 2°50.91 309.9 13.8 305 13.4
2003-06-25 07:29:02 51°18.01 2°50.88 309.9 13.8 305 13.5
2003-06-25 07:29:06 51°18.02 2°50.86 309.6 13.8 305 13.7
2003-06-25 07:29:12 51°18.03 2°50.83 309.7 13.7 306 13.6
2003-06-25 07:29:16 51°18.04 2°50.81 309.9 13.8 306 13.8
2003-06-25 07:29:22 51°18.05 2°50.78 310.3 13.7 306 13.8
2003-06-25 07:29:26 51°18.06 2°50.76 309.8 13.7 305 13.8
2003-06-25 07:29:32 51°18.08 2°50.73 309.6 13.7 305 14
2003-06-25 07:29:36 51°18.09 2°50.71 309.9 13.7 305 14
2003-06-25 07:29:40 51°18.09 2°50.69 310 13.7 306 14.1
2003-06-25 07:29:46 51°18.11 2°50.66 309.9 13.7 306 14.3
2003-06-25 07:29:52 51°18.12 2°50.64 310.3 13.7 306 14.3
2003-06-25 07:29:56 51°18.13 2°50.62 310.2 13.7 306 14.2
2003-06-25 07:30:02 51°18.14 2°50.59 310 13.7 306 14.4
2003-06-25 07:30:06 51°18.15 2°50.57 309.8 13.7 305 14.4
2003-06-25 07:30:12 51°18.17 2°50.54 309.8 13.7 306 14.5
2003-06-25 07:30:16 51°18.17 2°50.52 309.6 13.7 305 14.3
2003-06-25 07:30:22 51°18.19 2°50.49 309.9 13.7 306 14.5
2003-06-25 07:30:26 51°18.2 2°50.47 310.2 13.6 305 14.7
2003-06-25 07:30:32 51°18.21 2°50.44 309.9 13.6 305 14.9
2003-06-25 07:30:36 51°18.22 2°50.42 309.8 13.7 305 14.8
2003-06-25 07:30:42 51°18.23 2°50.39 310.3 13.5 306 15
2003-06-25 07:30:46 51°18.24 2°50.37 310.4 13.6 306 15
2003-06-25 07:30:52 51°18.25 2°50.34 310.9 13.5 307 15.3
2003-06-25 07:30:56 51°18.26 2°50.32 310.3 13.6 306 15.3
2003-06-25 07:31:02 51°18.27 2°50.29 310.3 13.6 306 15.2
2003-06-25 07:31:06 51°18.28 2°50.27 310.4 13.6 306 15.3
2003-06-25 07:31:12 51°18.3 2°50.24 310.1 13.7 306 15.2
2003-06-25 07:31:16 51°18.31 2°50.22 309.8 13.7 305 15.2
2003-06-25 07:31:22 51°18.32 2°50.19 309.9 13.6 306 15.2
2003-06-25 07:31:26 51°18.33 2°50.17 309.9 13.7 305 15.3
2003-06-25 07:31:32 51°18.34 2°50.14 310.4 13.6 306 15.3
2003-06-25 07:31:36 51°18.35 2°50.12 310.3 13.6 305 15.3
2003-06-25 07:31:40 51°18.36 2°50.11 310.1 13.7 306 15.2
2003-06-25 07:31:44 51°18.37 2°50.09 310.3 13.6 306 15.3
2003-06-25 07:31:52 51°18.39 2°50.05 310 13.6 305 15.3
2003-06-25 07:31:56 51°18.39 2°50.03 309.8 13.7 305 15.2
2003-06-25 07:32:02 51°18.41 2°50 310 13.7 306 15.3
2003-06-25 07:32:06 51°18.42 2°49.98 310.3 13.7 305 14.9
2003-06-25 07:32:12 51°18.43 2°49.95 309.9 13.7 305 15
2003-06-25 07:32:16 51°18.44 2°49.93 310.1 13.7 306 14.8
2003-06-25 07:32:22 51°18.45 2°49.9 310 13.7 306 14.8
2003-06-25 07:32:26 51°18.46 2°49.88 310.5 13.7 306 14.6
2003-06-25 07:32:32 51°18.47 2°49.85 310.3 13.6 306 14.6
2003-06-25 07:32:36 51°18.48 2°49.83 310.7 13.6 307 14.4
2003-06-25 07:32:42 51°18.5 2°49.8 310.9 13.5 306 14.2
2003-06-25 07:32:46 51°18.51 2°49.78 310.4 13.6 306 13.9
2003-06-25 07:32:52 51°18.52 2°49.75 310 13.6 305 14.2
2003-06-25 07:32:56 51°18.53 2°49.73 309.9 13.6 306 13.7
2003-06-25 07:33:02 51°18.54 2°49.7 309.6 13.6 305 13.6
2003-06-25 07:33:06 51°18.55 2°49.69 310 13.5 307 13.7
2003-06-25 07:33:12 51°18.56 2°49.66 309.8 13.6 306 13.4
2003-06-25 07:33:16 51°18.57 2°49.64 310 13.5 306 13.3
2003-06-25 07:33:22 51°18.58 2°49.61 310.2 13.6 306 13
2003-06-25 07:33:26 51°18.59 2°49.59 310.6 13.6 307 12.7
2003-06-25 07:33:32 51°18.61 2°49.56 310.4 13.6 306 12.3
2003-06-25 07:33:36 51°18.62 2°49.54 310.2 13.6 307 12.3
2003-06-25 07:33:42 51°18.63 2°49.51 310.1 13.5 307 12.5
2003-06-25 07:33:46 51°18.64 2°49.49 310.2 13.6 307 12
2003-06-25 07:33:52 51°18.65 2°49.46 309.9 13.6 306 12.1
2003-06-25 07:33:56 51°18.66 2°49.44 309.9 13.6 306 11.9
2003-06-25 07:34:02 51°18.67 2°49.42 310 13.6 306 11.9
2003-06-25 07:34:06 51°18.68 2°49.4 310.3 13.6 307 12
2003-06-25 07:34:12 51°18.7 2°49.37 310.4 13.6 307 11.8
2003-06-25 07:34:16 51°18.71 2°49.35 310.1 13.6 306 11.6
2003-06-25 07:34:22 51°18.72 2°49.32 310 13.5 306 11.8
2003-06-25 07:34:26 51°18.73 2°49.3 309.6 13.5 306 12.1
2003-06-25 07:34:32 51°18.74 2°49.27 310.1 13.5 307 12.4
2003-06-25 07:34:36 51°18.75 2°49.25 310.4 13.6 306 12.4
2003-06-25 07:34:42 51°18.76 2°49.22 310.2 13.7 306 12.4
2003-06-25 07:34:44 51°18.77 2°49.21 309.9 13.7 306 12.8
2003-06-25 07:34:52 51°18.79 2°49.17 310.2 13.7 307 12.5
2003-06-25 07:34:56 51°18.8 2°49.15 310 13.7 306 12.4
2003-06-25 07:35:02 51°18.81 2°49.12 310 13.5 306 12.4
2003-06-25 07:35:06 51°18.82 2°49.1 310.1 13.6 306 12.5
2003-06-25 07:35:12 51°18.83 2°49.07 310.6 13.4 306 12.6
2003-06-25 07:35:16 51°18.84 2°49.06 310.6 13.5 306 12.7
2003-06-25 07:35:22 51°18.85 2°49.03 310.4 13.5 306 12.9
2003-06-25 07:35:26 51°18.86 2°49.01 310.5 13.5 307 12.7
2003-06-25 07:35:32 51°18.88 2°48.98 310.3 13.6 306 12.8
2003-06-25 07:35:36 51°18.88 2°48.96 310.1 13.6 306 13.1
2003-06-25 07:35:42 51°18.9 2°48.93 310 13.6 306 13.4
2003-06-25 07:35:46 51°18.91 2°48.91 310.1 13.6 306 13.6
2003-06-25 07:35:52 51°18.92 2°48.88 310.2 13.7 306 13.9
2003-06-25 07:35:56 51°18.93 2°48.86 310.4 13.7 306 14.1
2003-06-25 07:36:00 51°18.94 2°48.84 310.2 13.6 306 14.5
2003-06-25 07:36:06 51°18.95 2°48.81 310.2 13.7 306 14.8
2003-06-25 07:36:12 51°18.96 2°48.78 310.2 13.6 306 15.2
2003-06-25 07:36:16 51°18.97 2°48.76 310.2 13.6 306 15.3
2003-06-25 07:36:22 51°18.99 2°48.73 310.6 13.7 306 15.4
2003-06-25 07:36:26 51°19 2°48.71 310.5 13.7 307 15.5
2003-06-25 07:36:32 51°19.01 2°48.68 310.6 13.7 306 15.6
2003-06-25 07:36:36 51°19.02 2°48.66 310.3 13.8 306 15.7
2003-06-25 07:36:42 51°19.03 2°48.63 310.5 13.8 307 15.7
2003-06-25 07:36:46 51°19.04 2°48.61 310.2 13.9 305 15.9
2003-06-25 07:36:52 51°19.05 2°48.58 310.4 13.8 306 16.1
2003-06-25 07:36:56 51°19.06 2°48.56 310.2 13.8 306 16.4
2003-06-25 07:37:02 51°19.08 2°48.54 310.2 13.8 306 16.5
2003-06-25 07:37:06 51°19.09 2°48.52 310.2 13.8 306 16.8
2003-06-25 07:37:12 51°19.1 2°48.49 310.2 13.9 306 17.1
2003-06-25 07:37:16 51°19.11 2°48.47 310.4 13.9 306 17.3
2003-06-25 07:37:22 51°19.12 2°48.44 310.3 13.9 306 17.5
2003-06-25 07:37:26 51°19.13 2°48.42 310.2 13.9 306 17.7
2003-06-25 07:37:32 51°19.15 2°48.39 309.8 13.9 305 17.9
2003-06-25 07:37:36 51°19.15 2°48.37 310 13.9 306 18.2
2003-06-25 07:37:40 51°19.16 2°48.35 310.4 14 306 18.2
2003-06-25 07:37:44 51°19.17 2°48.33 310.6 14 306 18.5
2003-06-25 07:37:52 51°19.19 2°48.29 310.6 13.9 307 18.7
2003-06-25 07:37:56 51°19.2 2°48.27 310.3 13.9 305 18.9
2003-06-25 07:38:02 51°19.21 2°48.24 310.5 13.9 307 19
2003-06-25 07:38:06 51°19.22 2°48.22 310.3 13.9 306 19.4
2003-06-25 07:38:12 51°19.24 2°48.19 310 14 306 19.5
2003-06-25 07:38:16 51°19.25 2°48.17 309.9 14 306 19.7
2003-06-25 07:38:20 51°19.25 2°48.15 310.1 14 306 19.9
2003-06-25 07:38:26 51°19.27 2°48.12 310.3 14 306 20.1
2003-06-25 07:38:32 51°19.28 2°48.09 310.2 14 306 20.2
2003-06-25 07:38:36 51°19.29 2°48.07 310.4 14 306 20.1
2003-06-25 07:38:42 51°19.31 2°48.04 310.5 14 306 20.5
2003-06-25 07:38:46 51°19.31 2°48.02 310.2 14 306 20.5
2003-06-25 07:38:52 51°19.33 2°47.99 310.3 14 306 20.8
2003-06-25 07:38:56 51°19.34 2°47.97 310.2 14 305 21
2003-06-25 07:39:00 51°19.35 2°47.95 310 14 306 21.2
2003-06-25 07:39:06 51°19.36 2°47.92 309.9 14 306 21.4
2003-06-25 07:39:12 51°19.37 2°47.88 310.4 14 306 21.6
2003-06-25 07:39:16 51°19.38 2°47.86 310.5 14 306 21.9
2003-06-25 07:39:22 51°19.4 2°47.83 310.3 14 306 22.2
2003-06-25 07:39:26 51°19.41 2°47.81 310.3 14 306 22.1
2003-06-25 07:39:32 51°19.42 2°47.78 310.4 14 307 22
2003-06-25 07:39:36 51°19.43 2°47.76 310.6 14.1 306 22
2003-06-25 07:39:42 51°19.44 2°47.73 310.4 14 305 22.3
2003-06-25 07:39:46 51°19.45 2°47.71 310.6 14.1 307 22.4
2003-06-25 07:39:52 51°19.46 2°47.68 310.3 14 306 22.6
2003-06-25 07:39:56 51°19.47 2°47.66 310.3 14 306 22.7
2003-06-25 07:40:02 51°19.49 2°47.63 310.4 14.2 306 22.7
2003-06-25 07:40:06 51°19.5 2°47.61 310.1 14.1 305 22.6
2003-06-25 07:40:12 51°19.51 2°47.58 310 14.1 305 22.8
2003-06-25 07:40:16 51°19.52 2°47.56 310.2 14.1 306 22.8
2003-06-25 07:40:22 51°19.53 2°47.53 310.5 14.1 306 22.9
2003-06-25 07:40:26 51°19.54 2°47.51 310.5 14.1 306 22.8
2003-06-25 07:40:32 51°19.56 2°47.48 309.9 14.1 306 22.9
2003-06-25 07:40:36 51°19.57 2°47.46 310.1 14.1 306 22.8
2003-06-25 07:40:40 51°19.57 2°47.44 310.6 14.2 307 22.8
2003-06-25 07:40:44 51°19.58 2°47.42 310.7 14.2 306 23
2003-06-25 07:40:52 51°19.6 2°47.38 310.4 14.1 306 22.9
2003-06-25 07:40:56 51°19.61 2°47.36 310.2 14.1 306 22.9
2003-06-25 07:41:02 51°19.62 2°47.33 310 14.1 306 22.8
2003-06-25 07:41:06 51°19.63 2°47.31 310 14.1 306 22.8
2003-06-25 07:41:12 51°19.65 2°47.28 310.5 14.1 306 22.9
2003-06-25 07:41:16 51°19.66 2°47.26 310.5 14.2 306 22.9
2003-06-25 07:41:20 51°19.67 2°47.24 310.3 14 306 22.9
2003-06-25 07:41:26 51°19.68 2°47.21 310.5 14.1 306 22.8
2003-06-25 07:41:32 51°19.69 2°47.18 310.6 14.1 307 22.8
2003-06-25 07:41:36 51°19.7 2°47.16 310 14.1 306 22.7
2003-06-25 07:41:42 51°19.72 2°47.13 309.9 14.1 306 22.6
2003-06-25 07:41:46 51°19.73 2°47.11 309.8 14.2 305 22.5
2003-06-25 07:41:52 51°19.74 2°47.08 310.2 14.1 306 22.4
2003-06-25 07:41:56 51°19.75 2°47.06 310.4 14.2 306 22.3
2003-06-25 07:42:02 51°19.76 2°47.03 310.6 14.1 307 22.1
2003-06-25 07:42:06 51°19.77 2°47 310.7 14.1 307 22.2
2003-06-25 07:42:12 51°19.79 2°46.97 310.4 14.1 306 21.8
2003-06-25 07:42:16 51°19.8 2°46.95 310.3 14.1 307 21.5
2003-06-25 07:42:22 51°19.81 2°46.92 310.1 14.2 306 20.2
2003-06-25 07:42:26 51°19.82 2°46.9 310.3 14.1 306 21
2003-06-25 07:42:32 51°19.83 2°46.87 310.4 14.1 306 21.3
2003-06-25 07:42:36 51°19.84 2°46.85 310.4 14.1 307 20.8
2003-06-25 07:42:42 51°19.86 2°46.82 310.3 14.1 306 20.9
2003-06-25 07:42:46 51°19.86 2°46.8 310.2 14.1 306 20.7
2003-06-25 07:42:52 51°19.88 2°46.77 310 14.1 306 20
2003-06-25 07:42:56 51°19.89 2°46.75 310.3 14.1 306 19
2003-06-25 07:43:02 51°19.9 2°46.72 310.6 14.1 306 19.6
2003-06-25 07:43:06 51°19.91 2°46.7 310.6 14 307 19.6
2003-06-25 07:43:12 51°19.92 2°46.67 310.5 14.1 306 19.4
2003-06-25 07:43:16 51°19.93 2°46.65 310 13.9 306 18.5
2003-06-25 07:43:22 51°19.95 2°46.62 310 13.9 306 17.6
2003-06-25 07:43:26 51°19.96 2°46.6 310.4 13.9 306 18
2003-06-25 07:43:32 51°19.97 2°46.57 310.6 13.9 306 18
2003-06-25 07:43:36 51°19.98 2°46.55 310.2 13.9 306 17.5
2003-06-25 07:43:40 51°19.99 2°46.53 310 13.9 306 16.5
2003-06-25 07:43:44 51°20 2°46.51 310 13.9 306 16.7
2003-06-25 07:43:52 51°20.02 2°46.47 309.8 13.9 305 16
2003-06-25 07:43:56 51°20.02 2°46.45 310 13.8 305 16.2
2003-06-25 07:44:02 51°20.04 2°46.42 307.4 13.7 302 16.8
2003-06-25 07:44:06 51°20.04 2°46.4 303.3 13.7 298 17
2003-06-25 07:44:12 51°20.05 2°46.37 297.9 13.5 292 16.7
2003-06-25 07:44:16 51°20.06 2°46.34 293 13.5 288 16.2
2003-06-25 07:44:22 51°20.06 2°46.31 290.3 13.5 285 14.8
2003-06-25 07:44:26 51°20.07 2°46.29 287.6 13.4 282 13.7
2003-06-25 07:44:32 51°20.07 2°46.25 285.8 13.4 282 15.6
2003-06-25 07:44:36 51°20.07 2°46.23 284.5 13.4 281 15.2
2003-06-25 07:44:40 51°20.08 2°46.21 283.5 13.4 280 15.4
2003-06-25 07:44:46 51°20.08 2°46.17 282.9 13.5 278 16.5
2003-06-25 07:44:52 51°20.08 2°46.13 282.9 13.6 280 13.5
2003-06-25 07:44:56 51°20.09 2°46.11 282.2 13.5 278 15.9
2003-06-25 07:45:02 51°20.09 2°46.08 282.8 13.5 279 16.2
2003-06-25 07:45:06 51°20.09 2°46.05 282.5 13.5 279 16.3
2003-06-25 07:45:12 51°20.1 2°46.02 282.8 13.6 279 17.2
2003-06-25 07:45:16 51°20.1 2°45.99 283.4 13.7 281 16.5
2003-06-25 07:45:22 51°20.1 2°45.96 283.3 13.6 280 15.9
2003-06-25 07:45:26 51°20.11 2°45.93 283 13.6 279 15.9
2003-06-25 07:45:32 51°20.11 2°45.9 283.3 13.5 280 14.7
2003-06-25 07:45:36 51°20.11 2°45.87 283.3 13.6 280 16.1
2003-06-25 07:45:42 51°20.12 2°45.84 283.6 13.6 280 17
2003-06-25 07:45:46 51°20.12 2°45.81 283.5 13.7 280 17.3
2003-06-25 07:45:52 51°20.12 2°45.78 283.4 13.6 280 17.9
2003-06-25 07:45:56 51°20.13 2°45.76 283.3 13.6 281 18.2
2003-06-25 07:46:02 51°20.13 2°45.72 283.6 13.6 280 17.4
2003-06-25 07:46:06 51°20.13 2°45.7 283.5 13.6 281 14.2
2003-06-25 07:46:12 51°20.14 2°45.66 283.6 13.4 281 17.9
2003-06-25 07:46:16 51°20.14 2°45.64 284.2 13.4 281 20
2003-06-25 07:46:20 51°20.14 2°45.61 283.7 13.5 280 21.1
2003-06-25 07:46:24 51°20.14 2°45.59 284.1 13.6 281 21.7
2003-06-25 07:46:32 51°20.15 2°45.54 284.1 13.6 281 22
2003-06-25 07:46:36 51°20.15 2°45.52 284.4 13.6 281 22.6
2003-06-25 07:46:42 51°20.16 2°45.48 284.4 13.6 281 23.3
2003-06-25 07:46:46 51°20.16 2°45.46 284.2 13.7 281 23.2
2003-06-25 07:46:52 51°20.16 2°45.42 283.8 13.7 281 23.7
2003-06-25 07:46:56 51°20.17 2°45.4 283.9 13.7 282 23.3
2003-06-25 07:47:00 51°20.17 2°45.38 284.2 13.7 282 23.8
2003-06-25 07:47:06 51°20.17 2°45.34 284 13.8 281 23.6
2003-06-25 07:47:12 51°20.18 2°45.3 284.4 13.8 282 24
2003-06-25 07:47:16 51°20.18 2°45.28 284.7 13.8 282 24.3
2003-06-25 07:47:22 51°20.19 2°45.24 284.1 13.8 281 24.2
2003-06-25 07:47:26 51°20.19 2°45.22 284.1 13.9 281 24.5
2003-06-25 07:47:32 51°20.19 2°45.18 284.3 13.8 281 24.8
2003-06-25 07:47:36 51°20.2 2°45.16 284.1 13.8 281 24.7
2003-06-25 07:47:42 51°20.2 2°45.13 284.5 13.7 281 24.8
2003-06-25 07:47:46 51°20.2 2°45.1 284.5 13.8 281 24.8
2003-06-25 07:47:52 51°20.21 2°45.07 284.9 13.8 282 25
2003-06-25 07:47:56 51°20.21 2°45.04 284.6 13.8 282 25
2003-06-25 07:48:02 51°20.22 2°45.01 284.5 13.8 281 25.1
2003-06-25 07:48:06 51°20.22 2°44.98 284.2 13.8 281 25.2
2003-06-25 07:48:12 51°20.22 2°44.95 284.7 13.8 282 25.3
2003-06-25 07:48:16 51°20.23 2°44.92 285 13.9 282 25.3
2003-06-25 07:48:22 51°20.23 2°44.89 285.2 13.8 283 25.6
2003-06-25 07:48:26 51°20.24 2°44.86 284.8 13.8 281 25.6
2003-06-25 07:48:32 51°20.24 2°44.83 284.9 13.8 282 25.5
2003-06-25 07:48:36 51°20.24 2°44.8 284.8 13.8 281 25.9
2003-06-25 07:48:42 51°20.25 2°44.77 284.8 13.8 282 26
2003-06-25 07:48:46 51°20.25 2°44.74 285.2 13.8 282 25.8
2003-06-25 07:48:52 51°20.26 2°44.71 284.9 13.7 281 26.1
2003-06-25 07:48:56 51°20.26 2°44.68 285 13.8 283 26.2
2003-06-25 07:49:02 51°20.26 2°44.65 284.6 13.9 282 26.2
2003-06-25 07:49:06 51°20.27 2°44.62 284.7 13.8 282 26.4
2003-06-25 07:49:12 51°20.27 2°44.59 285.1 13.8 282 26.6
2003-06-25 07:49:16 51°20.27 2°44.56 284.7 13.9 281 26.7
2003-06-25 07:49:20 51°20.28 2°44.54 284.9 13.9 283 26.9
2003-06-25 07:49:26 51°20.28 2°44.5 285.2 13.8 281 27.2
2003-06-25 07:49:32 51°20.29 2°44.47 284.9 13.9 282 27.5
2003-06-25 07:49:36 51°20.29 2°44.44 284.7 13.9 281 27.6
2003-06-25 07:49:42 51°20.3 2°44.41 285.1 13.9 282 27.6
2003-06-25 07:49:46 51°20.3 2°44.38 285.2 13.9 282 27.5
2003-06-25 07:49:52 51°20.3 2°44.35 284.8 13.9 282 27.8
2003-06-25 07:49:56 51°20.31 2°44.32 284.5 13.9 282 27.9
2003-06-25 07:50:02 51°20.31 2°44.29 285 13.9 282 28
2003-06-25 07:50:06 51°20.31 2°44.26 285 13.9 282 28.2
2003-06-25 07:50:12 51°20.32 2°44.22 284.5 13.9 281 28.3
2003-06-25 07:50:16 51°20.32 2°44.2 284.9 13.9 283 28.3
2003-06-25 07:50:22 51°20.33 2°44.16 285 14 281 28.4
2003-06-25 07:50:26 51°20.33 2°44.14 285.4 14 283 28.6
2003-06-25 07:50:32 51°20.33 2°44.1 285.1 13.9 281 28.6
2003-06-25 07:50:36 51°20.34 2°44.08 285.5 13.9 284 28.6
2003-06-25 07:50:42 51°20.34 2°44.04 285.5 14 282 28.3
2003-06-25 07:50:46 51°20.35 2°44.02 285.1 13.9 282 28.3
2003-06-25 07:50:52 51°20.35 2°43.98 284.9 14 281 28.4
2003-06-25 07:50:56 51°20.35 2°43.96 285.4 13.9 283 28.2
2003-06-25 07:51:00 51°20.36 2°43.94 285.1 13.9 282 28.4
2003-06-25 07:51:04 51°20.36 2°43.91 285.3 13.9 281 28.3
2003-06-25 07:51:12 51°20.37 2°43.86 285.1 13.8 281 28.4
2003-06-25 07:51:16 51°20.37 2°43.84 284.6 13.8 282 28.4
2003-06-25 07:51:22 51°20.37 2°43.8 284.8 13.9 281 28.4
2003-06-25 07:51:26 51°20.38 2°43.78 285.3 13.9 282 28.3
2003-06-25 07:51:32 51°20.38 2°43.74 285.3 13.9 282 28.5
2003-06-25 07:51:36 51°20.39 2°43.72 284.8 14 282 28.5
2003-06-25 07:51:40 51°20.39 2°43.69 285.2 14 283 28.4
2003-06-25 07:51:46 51°20.39 2°43.66 284.7 14 281 28.2
2003-06-25 07:51:52 51°20.4 2°43.62 285.1 14 283 28.1
2003-06-25 07:51:56 51°20.4 2°43.6 285.2 13.9 282 28.3
2003-06-25 07:52:02 51°20.41 2°43.56 284.8 14 283 28.2
2003-06-25 07:52:06 51°20.41 2°43.54 285 13.9 282 28.2
2003-06-25 07:52:12 51°20.41 2°43.5 285.2 13.9 282 28.3
2003-06-25 07:52:16 51°20.42 2°43.48 284.8 13.9 281 28.2
2003-06-25 07:52:22 51°20.42 2°43.44 284.8 13.9 282 28.1
2003-06-25 07:52:26 51°20.43 2°43.42 284.8 13.9 281 27.9
2003-06-25 07:52:32 51°20.43 2°43.38 285.1 13.9 282 27.4
2003-06-25 07:52:36 51°20.43 2°43.36 285.9 13.9 283 27.2
2003-06-25 07:52:42 51°20.44 2°43.32 285.5 13.9 282 27.1
2003-06-25 07:52:46 51°20.44 2°43.3 285.1 14 282 27.1
2003-06-25 07:52:52 51°20.45 2°43.26 285.1 14 281 27
2003-06-25 07:52:56 51°20.45 2°43.24 285 13.9 282 26.8
2003-06-25 07:53:02 51°20.45 2°43.2 284.7 14 281 26.1
2003-06-25 07:53:06 51°20.46 2°43.17 284.8 14 282 26.6
2003-06-25 07:53:12 51°20.46 2°43.14 282.9 13.9 278 26.6
2003-06-25 07:53:16 51°20.46 2°43.11 281.4 13.9 278 26.5
2003-06-25 07:53:22 51°20.47 2°43.08 281 14 277 26.4
2003-06-25 07:53:26 51°20.47 2°43.05 280.4 13.9 278 26.2
2003-06-25 07:53:32 51°20.47 2°43.02 280.1 13.9 276 26.2
2003-06-25 07:53:36 51°20.47 2°42.99 279.7 13.9 277 25.4
2003-06-25 07:53:42 51°20.48 2°42.95 280 13.9 277 25.8
2003-06-25 07:53:44 51°20.48 2°42.94 279.5 13.8 276 24
2003-06-25 07:53:52 51°20.48 2°42.89 279.4 13.9 276 24.6
2003-06-25 07:53:56 51°20.48 2°42.87 279.2 13.8 275 23.4
2003-06-25 07:54:02 51°20.48 2°42.83 278.3 13.8 275 22.1
2003-06-25 07:54:06 51°20.48 2°42.81 276.7 13.7 272 24
2003-06-25 07:54:12 51°20.49 2°42.77 276.1 13.7 274 24.4
2003-06-25 07:54:16 51°20.49 2°42.75 275.7 13.8 273 24.4
2003-06-25 07:54:22 51°20.49 2°42.71 275.6 13.8 273 24.3
2003-06-25 07:54:26 51°20.49 2°42.69 274.7 13.8 270 23.5
2003-06-25 07:54:32 51°20.49 2°42.65 274.3 13.8 272 21.4
2003-06-25 07:54:36 51°20.49 2°42.63 274.3 13.8 271 23.1
2003-06-25 07:54:42 51°20.49 2°42.59 275 13.8 274 23.5
2003-06-25 07:54:46 51°20.49 2°42.56 275 13.7 271 23.2
2003-06-25 07:54:52 51°20.49 2°42.53 275 13.8 273 20.8
2003-06-25 07:54:56 51°20.49 2°42.5 274.8 13.8 271 22.7
2003-06-25 07:55:02 51°20.49 2°42.47 275.3 13.7 274 22.7
2003-06-25 07:55:06 51°20.49 2°42.44 275 13.7 271 20.2
2003-06-25 07:55:12 51°20.49 2°42.41 274.5 13.8 272 21.4
2003-06-25 07:55:16 51°20.49 2°42.38 275.1 13.8 272 22.1
2003-06-25 07:55:22 51°20.49 2°42.35 274.8 13.7 271 22.2
2003-06-25 07:55:26 51°20.49 2°42.32 274.1 13.7 270 19.2
2003-06-25 07:55:32 51°20.49 2°42.28 274.1 13.7 272 20.8
2003-06-25 07:55:36 51°20.49 2°42.26 274.7 13.7 270 20.4
2003-06-25 07:55:42 51°20.5 2°42.22 275 13.6 272 20.9
2003-06-25 07:55:46 51°20.5 2°42.2 275 13.6 272 18.2
2003-06-25 07:55:52 51°20.5 2°42.16 275.2 13.6 272 18.3
2003-06-25 07:55:56 51°20.5 2°42.14 274.9 13.6 271 20.3
2003-06-25 07:56:02 51°20.5 2°42.1 274.6 13.5 270 20.2
2003-06-25 07:56:06 51°20.5 2°42.08 273.6 13.5 271 18.5
2003-06-25 07:56:12 51°20.5 2°42.04 274.1 13.6 271 20
2003-06-25 07:56:16 51°20.5 2°42.02 274.8 13.6 271 21.2
2003-06-25 07:56:22 51°20.5 2°41.98 274.7 13.5 272 21.8
2003-06-25 07:56:26 51°20.5 2°41.96 274.4 13.6 271 20.4
2003-06-25 07:56:32 51°20.5 2°41.92 275.7 13.6 273 21.4
2003-06-25 07:56:36 51°20.5 2°41.9 275.1 13.6 271 22.4
2003-06-25 07:56:42 51°20.5 2°41.86 275.6 13.6 275 21.1
2003-06-25 07:56:44 51°20.5 2°41.85 275.3 13.5 271 21.6
2003-06-25 07:56:52 51°20.5 2°41.8 275.4 13.6 274 21.3
2003-06-25 07:56:56 51°20.5 2°41.78 274.9 13.6 270 21.9
2003-06-25 07:57:02 51°20.5 2°41.74 275 13.6 274 22.4
2003-06-25 07:57:06 51°20.5 2°41.72 275.2 13.6 271 22.5
2003-06-25 07:57:12 51°20.51 2°41.68 274.9 13.6 272 21.7
2003-06-25 07:57:16 51°20.51 2°41.66 275.2 13.7 273 21.5
2003-06-25 07:57:22 51°20.51 2°41.62 275.6 13.6 273 21.6
2003-06-25 07:57:26 51°20.51 2°41.6 275 13.6 271 21.3
2003-06-25 07:57:32 51°20.51 2°41.56 274.6 13.6 272 21.6
2003-06-25 07:57:36 51°20.51 2°41.54 274.6 13.7 272 21.5
2003-06-25 07:57:42 51°20.51 2°41.5 275 13.6 273 21.6
2003-06-25 07:57:46 51°20.51 2°41.48 275.2 13.6 272 22.2
2003-06-25 07:57:52 51°20.51 2°41.44 275.7 13.6 273 23.1
2003-06-25 07:57:56 51°20.51 2°41.42 275.5 13.6 273 23.9
2003-06-25 07:58:00 51°20.51 2°41.39 275.5 13.7 273 22.3
2003-06-25 07:58:06 51°20.51 2°41.36 275.2 13.6 271 23.4
2003-06-25 07:58:12 51°20.51 2°41.32 274.5 13.5 271 24
2003-06-25 07:58:16 51°20.51 2°41.3 274.9 13.6 272 25.2
2003-06-25 07:58:22 51°20.52 2°41.26 275.6 13.5 273 26.2
2003-06-25 07:58:26 51°20.52 2°41.24 275.3 13.5 273 27
2003-06-25 07:58:32 51°20.52 2°41.2 275.2 13.5 272 27.9
2003-06-25 07:58:36 51°20.52 2°41.18 275.2 13.5 273 28.5
2003-06-25 07:58:42 51°20.52 2°41.14 275.2 13.6 274 28.9
2003-06-25 07:58:46 51°20.52 2°41.12 275.4 13.5 272 29.1
2003-06-25 07:58:52 51°20.52 2°41.08 275 13.6 272 29.2
2003-06-25 07:58:56 51°20.52 2°41.06 275.9 13.6 274 29.3
2003-06-25 07:59:02 51°20.52 2°41.02 275.6 13.6 273 29.4
2003-06-25 07:59:06 51°20.52 2°41 275.2 13.6 272 29.3
2003-06-25 07:59:12 51°20.52 2°40.96 274.9 13.7 273 29.3
2003-06-25 07:59:16 51°20.52 2°40.94 274.9 13.7 273 29.2
2003-06-25 07:59:22 51°20.53 2°40.9 275 13.6 271 29
2003-06-25 07:59:26 51°20.53 2°40.88 275 13.6 274 28.9
2003-06-25 07:59:32 51°20.53 2°40.84 275 13.6 273 28.8
2003-06-25 07:59:36 51°20.53 2°40.82 275.4 13.7 274 28.8
2003-06-25 07:59:40 51°20.53 2°40.79 275.4 13.6 273 28.8
2003-06-25 07:59:44 51°20.53 2°40.77 275.2 13.7 274 28.8
2003-06-25 07:59:52 51°20.53 2°40.72 275 13.7 273 28.9
2003-06-25 07:59:56 51°20.53 2°40.7 275.3 13.7 273 28.6
2003-06-25 08:00:02 51°20.53 2°40.66 275 13.7 272 28.7
2003-06-25 08:00:06 51°20.54 2°40.64 275.2 13.8 274 28.6
2003-06-25 08:00:12 51°20.54 2°40.6 275 13.7 273 28.7
2003-06-25 08:00:16 51°20.54 2°40.57 275.1 13.7 273 28.6
2003-06-25 08:00:22 51°20.54 2°40.54 275 13.7 273 28.8
2003-06-25 08:00:26 51°20.54 2°40.51 275.1 13.7 273 28.7
2003-06-25 08:00:32 51°20.54 2°40.48 275.3 13.7 274 28.8
2003-06-25 08:00:36 51°20.54 2°40.45 275.2 13.7 272 28.7
2003-06-25 08:00:42 51°20.54 2°40.42 275 13.7 272 28.9
2003-06-25 08:00:46 51°20.54 2°40.39 274.4 13.7 272 28.7
2003-06-25 08:00:52 51°20.54 2°40.36 274.8 13.7 273 28.8
2003-06-25 08:00:56 51°20.54 2°40.33 274.7 13.7 271 28.6
2003-06-25 08:01:02 51°20.54 2°40.3 275.8 13.7 274 28.1
2003-06-25 08:01:06 51°20.54 2°40.27 275.3 13.7 271 27.5
2003-06-25 08:01:12 51°20.55 2°40.24 275.1 13.7 273 27.5
2003-06-25 08:01:16 51°20.55 2°40.21 275.5 13.7 271 27.3
2003-06-25 08:01:22 51°20.55 2°40.17 275.1 13.7 272 27.2
2003-06-25 08:01:26 51°20.55 2°40.15 275.4 14.4 268 27.7
2003-06-25 08:01:32 51°20.55 2°40.11 274.4 13.6 270 28.2
2003-06-25 08:01:36 51°20.55 2°40.09 270.8 13.4 268 28
2003-06-25 08:01:42 51°20.54 2°40.05 266.3 13.5 262 28.4
2003-06-25 08:01:46 51°20.54 2°40.03 262.5 13.3 256 28.5
2003-06-25 08:01:52 51°20.54 2°40 257.6 13.3 254 28.5
2003-06-25 08:01:56 51°20.53 2°39.98 252.5 13.2 248 28.6
2003-06-25 08:02:02 51°20.52 2°39.94 248 13.2 244 28.6
2003-06-25 08:02:06 51°20.51 2°39.92 243 13.1 239 28.3
2003-06-25 08:02:12 51°20.5 2°39.9 238.5 13.2 234 28.1
2003-06-25 08:02:16 51°20.49 2°39.88 236.2 13.2 233 28.4
2003-06-25 08:02:22 51°20.48 2°39.85 233.5 13.2 229 28.3
2003-06-25 08:02:26 51°20.47 2°39.83 233.7 13.5 230 28.3
2003-06-25 08:02:32 51°20.45 2°39.81 234.9 13.2 232 28.1
2003-06-25 08:02:36 51°20.44 2°39.79 232.8 13.2 228 28
2003-06-25 08:02:42 51°20.43 2°39.76 233.9 13.6 232 27.9
2003-06-25 08:02:46 51°20.42 2°39.74 234.6 13.5 231 28.1
2003-06-25 08:02:52 51°20.41 2°39.71 233.8 13.3 230 27.9
2003-06-25 08:02:56 51°20.4 2°39.7 233.7 13.5 230 27.6
2003-06-25 08:03:02 51°20.38 2°39.67 234.4 13.6 230 27.5
2003-06-25 08:03:06 51°20.37 2°39.65 235.1 13.5 232 27.3
2003-06-25 08:03:12 51°20.36 2°39.62 235 13.5 231 26.7
2003-06-25 08:03:16 51°20.35 2°39.6 234.6 13.6 230 26
2003-06-25 08:03:22 51°20.34 2°39.57 235.6 13.6 232 25.9
2003-06-25 08:03:26 51°20.33 2°39.55 234.8 13.4 231 27.3
2003-06-25 08:03:32 51°20.31 2°39.53 234.4 13.5 230 27.4
2003-06-25 08:03:36 51°20.3 2°39.51 235.3 13.5 233 27.2
2003-06-25 08:03:42 51°20.29 2°39.48 234.7 13.5 230 27.5
2003-06-25 08:03:46 51°20.28 2°39.46 235.1 13.6 232 27.5
2003-06-25 08:03:52 51°20.27 2°39.43 235.3 13.5 232 27.5
2003-06-25 08:03:56 51°20.26 2°39.41 234.4 13.5 231 27.4
2003-06-25 08:04:02 51°20.24 2°39.39 235.1 13.6 232 27.4
2003-06-25 08:04:06 51°20.23 2°39.37 235.3 13.3 231 27.2
2003-06-25 08:04:12 51°20.22 2°39.34 234.4 13.7 230 27.2
2003-06-25 08:04:16 51°20.21 2°39.32 236 13.7 234 27.1
2003-06-25 08:04:22 51°20.19 2°39.29 234.2 13.5 229 26.9
2003-06-25 08:04:26 51°20.19 2°39.27 235.1 13.7 232 26.6
2003-06-25 08:04:32 51°20.17 2°39.25 235.8 13.5 232 26.1
2003-06-25 08:04:36 51°20.16 2°39.23 234.4 13.4 231 26.2
2003-06-25 08:04:42 51°20.15 2°39.2 234.8 13.7 232 25.9
2003-06-25 08:04:46 51°20.14 2°39.18 235.3 13.4 232 25.9
2003-06-25 08:04:52 51°20.12 2°39.15 234.1 13.5 229 26.5
2003-06-25 08:04:56 51°20.12 2°39.13 235.2 13.6 233 26.3
2003-06-25 08:05:02 51°20.1 2°39.11 233.9 13.6 228 26.2
2003-06-25 08:05:06 51°20.09 2°39.09 235.1 13.7 233 26.5
2003-06-25 08:05:12 51°20.08 2°39.06 234.6 13.4 229 26
2003-06-25 08:05:16 51°20.07 2°39.04 234.8 13.5 232 25.7
2003-06-25 08:05:22 51°20.05 2°39.01 235.1 13.5 231 25.7
2003-06-25 08:05:26 51°20.05 2°38.99 234.8 13.5 232 26.3
2003-06-25 08:05:32 51°20.03 2°38.96 235.2 13.6 232 26.1
2003-06-25 08:05:36 51°20.02 2°38.94 235.2 13.5 233 26.1
2003-06-25 08:05:42 51°20.01 2°38.92 234.3 13.6 230 26
2003-06-25 08:05:46 51°20 2°38.9 235.2 13.6 233 25.8
2003-06-25 08:05:52 51°19.98 2°38.87 235.2 13.6 231 25.9
2003-06-25 08:05:56 51°19.98 2°38.85 235.7 13.6 234 25.5
2003-06-25 08:06:02 51°19.96 2°38.82 235.2 13.5 232 25.8
2003-06-25 08:06:06 51°19.95 2°38.8 235.4 13.7 233 25.6
2003-06-25 08:06:12 51°19.94 2°38.77 235.7 13.6 233 25.3
2003-06-25 08:06:16 51°19.93 2°38.75 235.2 13.6 233 25.6
2003-06-25 08:06:22 51°19.92 2°38.73 235.5 13.7 233 25.6
2003-06-25 08:06:26 51°19.91 2°38.71 235.2 13.6 231 25.6
2003-06-25 08:06:32 51°19.89 2°38.68 235.2 13.6 233 25.5
2003-06-25 08:06:36 51°19.88 2°38.66 235 13.7 231 25.6
2003-06-25 08:06:42 51°19.87 2°38.63 235 13.6 233 25.3
2003-06-25 08:06:46 51°19.86 2°38.61 234 13.4 230 24.2
2003-06-25 08:06:52 51°19.85 2°38.58 234.8 13.5 233 25.2
2003-06-25 08:06:56 51°19.84 2°38.57 234.8 13.6 231 25.1
2003-06-25 08:07:02 51°19.82 2°38.54 235.1 13.5 232 24.2
2003-06-25 08:07:06 51°19.81 2°38.52 235 13.4 231 25.1
2003-06-25 08:07:12 51°19.8 2°38.49 234.7 13.6 231 25
2003-06-25 08:07:16 51°19.79 2°38.47 235.3 13.5 232 25.2
2003-06-25 08:07:22 51°19.78 2°38.44 234.5 13.4 230 25
2003-06-25 08:07:26 51°19.77 2°38.43 235.1 13.5 232 23.8
2003-06-25 08:07:32 51°19.75 2°38.4 236.1 13.5 232 24.4
2003-06-25 08:07:36 51°19.74 2°38.38 235.1 13.5 230 24.5
2003-06-25 08:07:42 51°19.73 2°38.35 234.9 13.5 231 24.4
2003-06-25 08:07:46 51°19.72 2°38.33 235.2 13.5 232 24.8
2003-06-25 08:07:52 51°19.71 2°38.3 235.2 13.5 231 24.1
2003-06-25 08:07:56 51°19.7 2°38.28 234.5 13.8 230 22.9
2003-06-25 08:08:02 51°19.68 2°38.26 236.6 13.5 234 24.2
2003-06-25 08:08:06 51°19.67 2°38.24 234.9 13.6 230 24.5
2003-06-25 08:08:12 51°19.66 2°38.21 235.7 13.6 234 24.2
2003-06-25 08:08:16 51°19.65 2°38.19 235 13.5 230 24.1
2003-06-25 08:08:22 51°19.64 2°38.16 234.5 13.6 232 23.2
2003-06-25 08:08:26 51°19.63 2°38.14 235.6 13.6 231 23.7
2003-06-25 08:08:32 51°19.61 2°38.12 235.3 13.2 231 24.6
2003-06-25 08:08:36 51°19.6 2°38.1 233.6 13.3 228 24.4
2003-06-25 08:08:42 51°19.59 2°38.07 234.5 13.6 231 22.9
2003-06-25 08:08:46 51°19.58 2°38.05 234.9 13.2 230 23.8
2003-06-25 08:08:52 51°19.56 2°38.03 234.5 13.2 230 23.2
2003-06-25 08:08:56 51°19.55 2°38.01 235.1 13.4 229 23.5
2003-06-25 08:09:02 51°19.54 2°37.98 235.3 13.3 230 22.5
2003-06-25 08:09:06 51°19.53 2°37.96 234.8 13.3 229 23
2003-06-25 08:09:12 51°19.52 2°37.94 235.7 13.3 231 23.6
2003-06-25 08:09:16 51°19.51 2°37.92 235.1 13.2 230 23.5
2003-06-25 08:09:22 51°19.49 2°37.89 234.4 13.5 229 23.4
2003-06-25 08:09:26 51°19.48 2°37.87 236 13.2 233 21
2003-06-25 08:09:32 51°19.47 2°37.85 234.8 13.1 228 22.6
2003-06-25 08:09:36 51°19.46 2°37.83 234.7 13.3 230 21.4
2003-06-25 08:09:42 51°19.45 2°37.8 235.7 13.3 230 22.6
2003-06-25 08:09:46 51°19.44 2°37.78 235.1 13.1 231 23
2003-06-25 08:09:52 51°19.42 2°37.76 235.2 13.1 231 20.8
2003-06-25 08:09:56 51°19.41 2°37.74 235.8 13.3 231 22.1
2003-06-25 08:10:02 51°19.4 2°37.71 236 13.3 231 22.3
2003-06-25 08:10:06 51°19.39 2°37.69 235 13.2 229 21.2
2003-06-25 08:10:12 51°19.38 2°37.67 235.3 13.1 231 20.9
2003-06-25 08:10:16 51°19.37 2°37.65 234.8 13.2 229 22.4
2003-06-25 08:10:22 51°19.35 2°37.62 235.2 13.2 231 22.8
2003-06-25 08:10:26 51°19.34 2°37.6 235.6 13.2 230 20.5
2003-06-25 08:10:32 51°19.33 2°37.58 236 13.2 232 22.1
2003-06-25 08:10:36 51°19.32 2°37.56 236 13.1 231 22.5
2003-06-25 08:10:42 51°19.31 2°37.53 235.8 13.3 231 21.8
2003-06-25 08:10:46 51°19.3 2°37.51 235.8 13.3 231 18.8
2003-06-25 08:10:52 51°19.28 2°37.49 235.5 13.2 231 20.7
2003-06-25 08:10:56 51°19.27 2°37.47 235.2 13 231 21.4
2003-06-25 08:11:02 51°19.26 2°37.44 234.5 13.3 229 22.6
2003-06-25 08:11:06 51°19.25 2°37.42 235.8 13.3 230 21.1
2003-06-25 08:11:12 51°19.23 2°37.4 234.9 13.3 229 20
2003-06-25 08:11:16 51°19.23 2°37.38 236 13.2 232 21.3
2003-06-25 08:11:22 51°19.21 2°37.35 235.6 13 229 22.2
2003-06-25 08:11:26 51°19.2 2°37.33 234.7 13.2 230 21
2003-06-25 08:11:32 51°19.19 2°37.31 235.1 13.3 230 20.2
2003-06-25 08:11:36 51°19.18 2°37.29 235.7 13 231 21.7
2003-06-25 08:11:42 51°19.16 2°37.26 234.9 13 229 19.6
2003-06-25 08:11:46 51°19.16 2°37.24 235.3 13.2 230 20.9
2003-06-25 08:11:52 51°19.14 2°37.22 234.6 13.2 229 21.4
2003-06-25 08:11:56 51°19.13 2°37.2 235.1 13.2 231 19.2
2003-06-25 08:12:02 51°19.12 2°37.17 235.2 13.1 229 21.1
2003-06-25 08:12:06 51°19.11 2°37.15 235.1 13.1 229 21.9
2003-06-25 08:12:12 51°19.09 2°37.13 234.8 13.4 229 21.3
2003-06-25 08:12:16 51°19.08 2°37.11 235.7 13.2 232 20.4
2003-06-25 08:12:22 51°19.07 2°37.08 235.1 13 230 19.1
2003-06-25 08:12:26 51°19.06 2°37.07 235.6 13.4 229 19.8
2003-06-25 08:12:32 51°19.05 2°37.04 236.2 13.2 232 20.1
2003-06-25 08:12:36 51°19.04 2°37.02 234.4 13.2 228 18.7
2003-06-25 08:12:42 51°19.02 2°36.99 235.2 13.2 232 21.6
2003-06-25 08:12:48 51°19.01 2°36.97 235.3 13.2 228 22.9
2003-06-25 08:12:52 51°19 2°36.95 235.1 13.2 232 21.2
2003-06-25 08:12:56 51°18.99 2°36.93 235.7 13.1 230 20.6
2003-06-25 08:13:00 51°18.98 2°36.91 235.4 13.2 230 22.1
2003-06-25 08:13:04 51°18.97 2°36.89 235.4 13.3 231 22.6
2003-06-25 08:13:12 51°18.95 2°36.86 235.8 13.1 231 21.1
2003-06-25 08:13:16 51°18.94 2°36.84 234.6 13.1 229 19.9
2003-06-25 08:13:22 51°18.93 2°36.81 234.9 13.3 230 21.8
2003-06-25 08:13:28 51°18.92 2°36.79 235.7 13 231 22.2
2003-06-25 08:13:32 51°18.91 2°36.77 235.8 13 230 22
2003-06-25 08:13:36 51°18.9 2°36.75 235.7 13.4 229 21.6
2003-06-25 08:13:42 51°18.88 2°36.72 237 13.3 234 21.8
2003-06-25 08:13:46 51°18.87 2°36.71 235 13.1 228 19.7
2003-06-25 08:13:52 51°18.86 2°36.68 235.6 13.2 232 18.2
2003-06-25 08:13:56 51°18.85 2°36.66 235.2 13.2 228 20.3
2003-06-25 08:14:02 51°18.84 2°36.63 235.2 13 231 22
2003-06-25 08:14:08 51°18.82 2°36.61 234.8 13.3 230 22.1
2003-06-25 08:14:12 51°18.81 2°36.59 235.7 13.2 232 21.5
2003-06-25 08:14:16 51°18.8 2°36.57 235.3 13.1 229 17.9
2003-06-25 08:14:22 51°18.79 2°36.55 235.3 13.1 231 20.3
2003-06-25 08:14:28 51°18.78 2°36.52 235.2 13.3 230 21.7
2003-06-25 08:14:32 51°18.77 2°36.5 235.3 13.2 231 22.6
2003-06-25 08:14:36 51°18.76 2°36.48 235.5 13.2 230 23.5
2003-06-25 08:14:42 51°18.74 2°36.46 235.4 13.2 232 23.8
2003-06-25 08:14:48 51°18.73 2°36.43 235.6 13.4 229 22.4
2003-06-25 08:14:52 51°18.72 2°36.41 235.6 13.2 232 18.2
2003-06-25 08:14:56 51°18.71 2°36.39 235.7 12.8 230 19.8
2003-06-25 08:15:00 51°18.7 2°36.38 232.4 13.3 227 21.1
2003-06-25 08:15:08 51°18.68 2°36.34 233.7 13.1 227 21.7
2003-06-25 08:15:12 51°18.67 2°36.33 230.8 13.1 222 23.1
2003-06-25 08:15:16 51°18.66 2°36.31 226.2 13.1 221 24
2003-06-25 08:15:20 51°18.65 2°36.3 222.8 13.1 214 25.2
2003-06-25 08:15:28 51°18.62 2°36.27 218.3 13.2 210 25.5
2003-06-25 08:15:32 51°18.61 2°36.26 213.9 12.8 204 25.5
2003-06-25 08:15:36 51°18.6 2°36.26 207.2 13 198 22.9
2003-06-25 08:15:42 51°18.57 2°36.25 202.3 13.2 196 19.1
2003-06-25 08:15:48 51°18.55 2°36.24 196.8 13.3 186 21
2003-06-25 08:15:52 51°18.54 2°36.24 191.3 13.1 181 21.8
2003-06-25 08:15:56 51°18.52 2°36.25 185.4 13 176 22
2003-06-25 08:16:02 51°18.5 2°36.25 179.6 13.2 172 21.8
2003-06-25 08:16:06 51°18.49 2°36.26 173.4 13.5 163 22.2
2003-06-25 08:16:12 51°18.47 2°36.27 169.2 13.4 161 22.7
2003-06-25 08:16:16 51°18.45 2°36.28 166.1 13.5 157 23.4
2003-06-25 08:16:22 51°18.43 2°36.3 159.8 13.7 153 23.4
2003-06-25 08:16:28 51°18.41 2°36.32 153.1 13.7 145 22.2
2003-06-25 08:16:32 51°18.4 2°36.33 150.4 13.9 143 20.5
2003-06-25 08:16:36 51°18.39 2°36.35 145.5 13.8 137 19.6
2003-06-25 08:16:40 51°18.38 2°36.37 143.3 13.9 137 20.6
2003-06-25 08:16:48 51°18.36 2°36.4 140.7 14.1 133 19.7
2003-06-25 08:16:52 51°18.35 2°36.42 141.4 14.2 136 20.2
2003-06-25 08:16:56 51°18.33 2°36.44 140.4 14.5 133 19.7
2003-06-25 08:17:02 51°18.32 2°36.47 136.5 14.3 130 18.1
2003-06-25 08:17:06 51°18.31 2°36.49 136.7 14.3 131 19.4
2003-06-25 08:17:12 51°18.29 2°36.52 136.1 14.5 129 17.9
2003-06-25 08:17:16 51°18.28 2°36.54 136.1 14.3 131 15.9
2003-06-25 08:17:22 51°18.27 2°36.56 137.9 14.2 131 17.1
2003-06-25 08:17:28 51°18.25 2°36.59 138.8 14.5 132 17.5
2003-06-25 08:17:32 51°18.24 2°36.61 138.3 14.5 132 16
2003-06-25 08:17:36 51°18.23 2°36.63 137.1 14.5 131 17.2
2003-06-25 08:17:40 51°18.22 2°36.65 136.3 14.3 131 17.9
2003-06-25 08:17:48 51°18.2 2°36.69 135 14.5 127 18.2
2003-06-25 08:17:52 51°18.19 2°36.71 134.6 14.5 130 18.7
2003-06-25 08:17:56 51°18.18 2°36.73 135 14.7 128 18.7
2003-06-25 08:18:02 51°18.16 2°36.76 135.1 14.6 130 19.6
2003-06-25 08:18:08 51°18.15 2°36.79 136.9 14.3 133 20.3
2003-06-25 08:18:12 51°18.14 2°36.81 139.6 14.5 135 20.5
2003-06-25 08:18:16 51°18.13 2°36.82 140.4 14.6 135 20.9